createdAt,value
2022-10-13T00:00:03.223Z,17.50
2022-10-13T00:00:30.846Z,19.80
2022-10-13T00:01:01.543Z,19.20
2022-10-13T00:01:34.692Z,19.10
2022-10-13T00:02:02.985Z,20.10
2022-10-13T00:02:33.623Z,18.90
2022-10-13T00:03:04.311Z,18.70
2022-10-13T00:03:34.927Z,17.20
2022-10-13T00:04:08.629Z,16.50
2022-10-13T00:04:36.316Z,16.90
2022-10-13T00:05:07.803Z,17.40
2022-10-13T00:05:37.995Z,18.40
2022-10-13T00:06:11.820Z,17.60
2022-10-13T00:06:40.213Z,18.20
2022-10-13T00:07:10.381Z,17.30
2022-10-13T00:07:41.022Z,17.90
2022-10-13T00:08:11.696Z,18.00
2022-10-13T00:08:43.315Z,17.00
2022-10-13T00:09:20.914Z,18.50
2022-10-13T00:09:43.626Z,18.40
2022-10-13T00:10:14.274Z,18.40
2022-10-13T00:10:44.951Z,18.00
2022-10-13T00:11:15.596Z,17.00
2022-10-13T00:11:46.248Z,16.80
2022-10-13T00:12:19.200Z,15.90
2022-10-13T00:12:47.963Z,17.40
2022-10-13T00:13:21.707Z,15.90
2022-10-13T00:13:48.855Z,15.80
2022-10-13T00:14:19.535Z,16.20
2022-10-13T00:14:50.211Z,16.70
2022-10-13T00:15:20.914Z,17.50
2022-10-13T00:15:51.578Z,17.50
2022-10-13T00:16:22.260Z,18.20
2022-10-13T00:16:52.987Z,17.00
2022-10-13T00:17:24.205Z,17.10
2022-10-13T00:17:54.374Z,16.70
2022-10-13T00:18:25.011Z,17.90
2022-10-13T00:18:55.699Z,17.00
2022-10-13T00:19:26.333Z,15.60
2022-10-13T00:19:56.976Z,15.30
2022-10-13T00:20:27.864Z,16.30
2022-10-13T00:20:59.108Z,16.00
2022-10-13T00:21:29.240Z,16.80
2022-10-13T00:22:01.539Z,16.20
2022-10-13T00:22:30.650Z,17.10
2022-10-13T00:23:01.295Z,16.40
2022-10-13T00:23:31.934Z,17.00
2022-10-13T00:24:03.219Z,17.80
2022-10-13T00:24:33.512Z,15.90
2022-10-13T00:25:04.833Z,16.40
2022-10-13T00:25:34.977Z,15.90
2022-10-13T00:26:05.648Z,16.00
2022-10-13T00:26:36.282Z,16.90
2022-10-13T00:27:06.916Z,17.00
2022-10-13T00:27:37.602Z,17.70
2022-10-13T00:28:08.231Z,15.70
2022-10-13T00:28:38.945Z,15.10
2022-10-13T00:29:09.563Z,15.40
2022-10-13T00:29:40.191Z,16.50
2022-10-13T00:30:10.842Z,15.20
2022-10-13T00:30:41.473Z,14.80
2022-10-13T00:31:12.107Z,15.40
2022-10-13T00:31:42.765Z,16.60
2022-10-13T00:32:13.378Z,17.80
2022-10-13T00:32:44.009Z,19.00
2022-10-13T00:33:14.649Z,18.40
2022-10-13T00:33:45.275Z,17.80
2022-10-13T00:34:15.909Z,18.00
2022-10-13T00:34:46.544Z,17.10
2022-10-13T00:35:17.213Z,16.50
2022-10-13T00:35:47.852Z,16.90
2022-10-13T00:36:18.481Z,16.40
2022-10-13T00:36:49.112Z,15.90
2022-10-13T00:37:19.747Z,17.00
2022-10-13T00:37:50.382Z,17.50
2022-10-13T00:38:21.019Z,17.00
2022-10-13T00:38:51.644Z,17.30
2022-10-13T00:39:22.277Z,18.20
2022-10-13T00:39:52.946Z,17.10
2022-10-13T00:40:23.587Z,18.60
2022-10-13T00:40:54.216Z,17.80
2022-10-13T00:41:24.847Z,17.80
2022-10-13T00:41:55.481Z,17.20
2022-10-13T00:42:26.121Z,16.50
2022-10-13T00:42:56.753Z,17.60
2022-10-13T00:43:27.380Z,17.30
2022-10-13T00:43:58.033Z,16.50
2022-10-13T00:44:28.666Z,18.40
2022-10-13T00:44:59.303Z,17.50
2022-10-13T00:45:29.922Z,17.40
2022-10-13T00:46:00.561Z,17.60
2022-10-13T00:46:31.187Z,17.10
2022-10-13T00:47:01.819Z,16.50
2022-10-13T00:47:32.452Z,16.50
2022-10-13T00:48:02.982Z,16.30
2022-10-13T00:48:33.611Z,18.10
2022-10-13T00:49:04.238Z,18.00
2022-10-13T00:49:34.876Z,18.30
2022-10-13T00:50:05.524Z,17.80
2022-10-13T00:50:36.159Z,17.00
2022-10-13T00:51:06.835Z,17.30
2022-10-13T00:51:37.476Z,17.60
2022-10-13T00:52:08.109Z,17.60
2022-10-13T00:52:38.745Z,15.20
2022-10-13T00:53:09.371Z,16.00
2022-10-13T00:53:40.003Z,17.50
2022-10-13T00:54:10.648Z,17.60
2022-10-13T00:54:41.277Z,17.60
2022-10-13T00:55:11.904Z,16.90
2022-10-13T00:55:42.549Z,17.00
2022-10-13T00:56:13.198Z,15.50
2022-10-13T00:56:43.887Z,16.50
2022-10-13T00:57:14.516Z,17.70
2022-10-13T00:57:45.142Z,18.00
2022-10-13T00:58:15.770Z,17.90
2022-10-13T00:58:46.402Z,16.40
2022-10-13T00:59:17.039Z,17.10
2022-10-13T00:59:47.666Z,17.00
2022-10-13T01:00:18.305Z,17.90
2022-10-13T01:00:48.991Z,18.10
2022-10-13T01:01:19.660Z,16.60
2022-10-13T01:01:50.290Z,16.20
2022-10-13T01:02:21.331Z,15.30
2022-10-13T01:02:51.634Z,15.90
2022-10-13T01:03:22.231Z,16.70
2022-10-13T01:03:52.861Z,15.30
2022-10-13T01:04:23.496Z,15.40
2022-10-13T01:04:54.130Z,16.40
2022-10-13T01:05:24.773Z,16.20
2022-10-13T01:05:55.411Z,16.70
2022-10-13T01:06:26.043Z,17.60
2022-10-13T01:06:56.677Z,14.60
2022-10-13T01:07:27.314Z,14.60
2022-10-13T01:07:57.961Z,17.70
2022-10-13T01:08:28.587Z,17.70
2022-10-13T01:08:59.227Z,15.20
2022-10-13T01:09:29.855Z,17.00
2022-10-13T01:10:00.487Z,16.90
2022-10-13T01:10:31.130Z,17.50
2022-10-13T01:11:02.188Z,18.30
2022-10-13T01:11:32.332Z,17.30
2022-10-13T01:12:02.964Z,17.10
2022-10-13T01:12:33.595Z,17.90
2022-10-13T01:13:04.233Z,16.00
2022-10-13T01:13:34.865Z,16.40
2022-10-13T01:14:05.502Z,16.30
2022-10-13T01:14:36.150Z,14.70
2022-10-13T01:15:06.776Z,17.10
2022-10-13T01:15:37.435Z,17.20
2022-10-13T01:16:08.077Z,17.30
2022-10-13T01:16:38.718Z,17.40
2022-10-13T01:17:09.349Z,16.80
2022-10-13T01:17:39.977Z,17.60
2022-10-13T01:18:10.607Z,17.90
2022-10-13T01:18:41.246Z,19.30
2022-10-13T01:19:11.874Z,17.80
2022-10-13T01:19:42.504Z,18.50
2022-10-13T01:20:13.131Z,18.00
2022-10-13T01:20:43.758Z,18.80
2022-10-13T01:21:14.401Z,17.00
2022-10-13T01:21:45.039Z,17.60
2022-10-13T01:22:16.106Z,18.00
2022-10-13T01:22:46.433Z,17.50
2022-10-13T01:23:17.064Z,16.60
2022-10-13T01:23:47.706Z,18.10
2022-10-13T01:24:18.329Z,17.00
2022-10-13T01:24:48.960Z,18.00
2022-10-13T01:25:19.591Z,18.10
2022-10-13T01:25:50.226Z,18.10
2022-10-13T01:26:20.871Z,17.20
2022-10-13T01:26:51.510Z,17.00
2022-10-13T01:27:22.131Z,16.30
2022-10-13T01:27:52.766Z,16.90
2022-10-13T01:28:23.421Z,16.40
2022-10-13T01:28:54.029Z,17.70
2022-10-13T01:29:24.664Z,17.10
2022-10-13T01:29:55.297Z,15.90
2022-10-13T01:30:25.930Z,16.20
2022-10-13T01:30:56.573Z,14.80
2022-10-13T01:31:27.215Z,15.60
2022-10-13T01:31:57.859Z,15.80
2022-10-13T01:32:28.500Z,16.40
2022-10-13T01:32:59.093Z,15.80
2022-10-13T01:33:29.726Z,16.10
2022-10-13T01:34:00.376Z,16.50
2022-10-13T01:34:31.017Z,14.80
2022-10-13T01:35:01.649Z,15.60
2022-10-13T01:35:32.279Z,19.80
2022-10-13T01:36:02.912Z,18.10
2022-10-13T01:36:33.556Z,16.90
2022-10-13T01:37:04.202Z,16.70
2022-10-13T01:37:34.831Z,15.40
2022-10-13T01:38:05.465Z,14.90
2022-10-13T01:38:36.097Z,16.40
2022-10-13T01:39:06.725Z,17.50
2022-10-13T01:39:37.357Z,18.00
2022-10-13T01:40:07.985Z,17.60
2022-10-13T01:40:38.621Z,16.40
2022-10-13T01:41:10.818Z,16.80
2022-10-13T01:41:40.076Z,15.80
2022-10-13T01:42:11.249Z,16.10
2022-10-13T01:42:41.395Z,16.60
2022-10-13T01:43:12.029Z,16.70
2022-10-13T01:43:42.658Z,17.20
2022-10-13T01:44:13.288Z,16.30
2022-10-13T01:44:43.918Z,16.50
2022-10-13T01:45:14.547Z,18.50
2022-10-13T01:45:45.188Z,16.30
2022-10-13T01:46:15.822Z,15.50
2022-10-13T01:46:46.466Z,17.20
2022-10-13T01:47:17.119Z,17.00
2022-10-13T01:47:47.747Z,15.70
2022-10-13T01:48:18.379Z,16.20
2022-10-13T01:48:49.016Z,16.00
2022-10-13T01:49:19.643Z,15.90
2022-10-13T01:49:50.282Z,17.20
2022-10-13T01:50:20.915Z,15.50
2022-10-13T01:50:51.547Z,16.60
2022-10-13T01:51:22.172Z,15.90
2022-10-13T01:51:52.805Z,17.10
2022-10-13T01:52:23.436Z,17.20
2022-10-13T01:52:54.071Z,17.90
2022-10-13T01:53:24.696Z,17.40
2022-10-13T01:53:55.350Z,18.00
2022-10-13T01:54:25.985Z,17.80
2022-10-13T01:54:56.606Z,16.20
2022-10-13T01:55:27.251Z,16.20
2022-10-13T01:55:57.873Z,15.50
2022-10-13T01:56:28.506Z,15.60
2022-10-13T01:56:59.147Z,15.70
2022-10-13T01:57:29.789Z,15.60
2022-10-13T01:58:00.421Z,16.20
2022-10-13T01:58:31.032Z,17.90
2022-10-13T01:59:01.663Z,16.70
2022-10-13T01:59:32.406Z,16.80
2022-10-13T02:00:02.982Z,15.90
2022-10-13T02:00:33.637Z,16.90
2022-10-13T02:01:04.308Z,16.60
2022-10-13T02:01:34.917Z,17.00
2022-10-13T02:02:05.560Z,18.50
2022-10-13T02:02:36.203Z,17.70
2022-10-13T02:03:06.839Z,16.90
2022-10-13T02:03:37.473Z,15.60
2022-10-13T02:04:08.092Z,15.90
2022-10-13T02:04:38.731Z,15.80
2022-10-13T02:05:09.363Z,16.40
2022-10-13T02:05:39.991Z,14.90
2022-10-13T02:06:10.977Z,14.30
2022-10-13T02:06:41.608Z,15.30
2022-10-13T02:07:12.257Z,13.70
2022-10-13T02:07:42.890Z,15.00
2022-10-13T02:08:13.529Z,15.20
2022-10-13T02:08:44.159Z,15.20
2022-10-13T02:09:14.787Z,15.30
2022-10-13T02:09:45.422Z,16.00
2022-10-13T02:10:16.056Z,16.00
2022-10-13T02:10:46.684Z,16.30
2022-10-13T02:11:17.317Z,14.80
2022-10-13T02:11:47.952Z,15.20
2022-10-13T02:12:18.804Z,14.10
2022-10-13T02:12:49.105Z,14.10
2022-10-13T02:13:19.737Z,16.10
2022-10-13T02:13:50.369Z,14.70
2022-10-13T02:14:21.002Z,13.80
2022-10-13T02:14:51.632Z,14.20
2022-10-13T02:15:22.261Z,14.50
2022-10-13T02:15:52.893Z,14.90
2022-10-13T02:16:23.555Z,14.50
2022-10-13T02:16:54.167Z,13.40
2022-10-13T02:17:24.802Z,14.20
2022-10-13T02:17:55.447Z,15.00
2022-10-13T02:18:26.083Z,15.00
2022-10-13T02:18:56.715Z,14.00
2022-10-13T02:19:27.321Z,14.80
2022-10-13T02:19:57.951Z,15.60
2022-10-13T02:20:28.586Z,15.10
2022-10-13T02:20:59.222Z,15.00
2022-10-13T02:21:29.882Z,15.80
2022-10-13T02:22:00.520Z,15.90
2022-10-13T02:22:31.161Z,16.50
2022-10-13T02:23:01.787Z,16.60
2022-10-13T02:23:32.420Z,16.50
2022-10-13T02:24:03.051Z,16.10
2022-10-13T02:24:33.682Z,16.80
2022-10-13T02:25:04.315Z,16.60
2022-10-13T02:25:34.958Z,17.20
2022-10-13T02:26:05.584Z,16.90
2022-10-13T02:26:36.221Z,17.50
2022-10-13T02:27:06.863Z,17.30
2022-10-13T02:27:37.480Z,17.10
2022-10-13T02:28:08.171Z,15.70
2022-10-13T02:28:38.841Z,15.20
2022-10-13T02:29:09.529Z,16.40
2022-10-13T02:29:40.169Z,16.60
2022-10-13T02:30:10.781Z,16.00
2022-10-13T02:30:41.417Z,15.50
2022-10-13T02:31:12.045Z,14.90
2022-10-13T02:31:42.668Z,15.80
2022-10-13T02:32:13.303Z,16.30
2022-10-13T02:32:43.942Z,15.60
2022-10-13T02:33:14.583Z,16.50
2022-10-13T02:33:45.222Z,18.40
2022-10-13T02:34:15.858Z,21.30
2022-10-13T02:34:46.489Z,19.40
2022-10-13T02:35:17.120Z,19.10
2022-10-13T02:35:47.740Z,18.30
2022-10-13T02:36:18.376Z,17.80
2022-10-13T02:36:49.014Z,19.30
2022-10-13T02:37:19.645Z,19.70
2022-10-13T02:37:50.289Z,19.90
2022-10-13T02:38:20.930Z,20.50
2022-10-13T02:38:51.562Z,21.40
2022-10-13T02:39:22.209Z,20.60
2022-10-13T02:46:09.793Z,22.80
2022-10-13T02:46:41.568Z,19.90
2022-10-13T02:47:12.274Z,22.10
2022-10-13T02:47:43.021Z,21.60
2022-10-13T02:48:14.057Z,22.10
2022-10-13T02:48:44.357Z,19.70
2022-10-13T02:49:15.909Z,18.80
2022-10-13T02:49:45.603Z,20.40
2022-10-13T02:50:19.010Z,19.10
2022-10-13T02:50:47.153Z,17.80
2022-10-13T02:51:17.807Z,19.00
2022-10-13T02:51:48.465Z,19.00
2022-10-13T02:52:19.616Z,19.80
2022-10-13T02:52:50.017Z,18.70
2022-10-13T02:53:20.666Z,19.20
2022-10-13T02:53:51.306Z,18.10
2022-10-13T02:54:21.945Z,18.50
2022-10-13T02:54:52.592Z,19.60
2022-10-13T02:55:23.226Z,17.50
2022-10-13T02:55:53.846Z,22.40
2022-10-13T02:56:24.483Z,20.30
2022-10-13T02:56:55.136Z,23.30
2022-10-13T02:57:25.773Z,24.90
2022-10-13T02:57:56.448Z,23.60
2022-10-13T02:58:27.119Z,21.30
2022-10-13T02:58:57.833Z,21.30
2022-10-13T02:59:28.479Z,22.40
2022-10-13T02:59:59.164Z,25.30
2022-10-13T03:00:29.996Z,32.50
2022-10-13T03:01:00.734Z,45.90
2022-10-13T03:01:31.373Z,44.60
2022-10-13T03:02:02.069Z,45.10
2022-10-13T03:02:32.709Z,51.40
2022-10-13T03:03:03.545Z,52.20
2022-10-13T03:03:34.356Z,51.80
2022-10-13T03:04:05.149Z,48.10
2022-10-13T03:04:35.956Z,47.60
2022-10-13T03:05:06.697Z,47.70
2022-10-13T03:05:37.498Z,46.50
2022-10-13T03:06:08.216Z,48.70
2022-10-13T03:06:38.901Z,39.40
2022-10-13T03:07:09.737Z,30.30
2022-10-13T03:07:41.975Z,49.70
2022-10-13T03:08:11.126Z,45.30
2022-10-13T03:08:42.488Z,37.90
2022-10-13T03:09:12.728Z,43.60
2022-10-13T03:09:43.428Z,37.10
2022-10-13T03:10:14.472Z,34.60
2022-10-13T03:10:44.723Z,41.90
2022-10-13T03:11:15.519Z,47.10
2022-10-13T03:11:46.280Z,48.30
2022-10-13T03:12:17.246Z,42.10
2022-10-13T03:12:47.515Z,42.20
2022-10-13T03:13:18.169Z,47.90
2022-10-13T03:13:48.867Z,47.40
2022-10-13T03:14:19.544Z,43.80
2022-10-13T03:14:50.202Z,46.40
2022-10-13T03:15:20.873Z,49.80
2022-10-13T03:15:51.499Z,51.50
2022-10-13T03:16:22.173Z,38.40
2022-10-13T03:16:54.619Z,42.00
2022-10-13T03:17:23.782Z,44.10
2022-10-13T03:17:54.541Z,45.60
2022-10-13T03:18:25.170Z,40.10
2022-10-13T03:18:56.060Z,41.60
2022-10-13T03:19:26.746Z,39.20
2022-10-13T03:19:57.384Z,37.30
2022-10-13T03:20:28.081Z,26.90
2022-10-13T03:20:58.709Z,31.10
2022-10-13T03:21:30.025Z,35.90
2022-10-13T03:22:00.624Z,32.20
2022-10-13T03:22:30.781Z,36.90
2022-10-13T03:23:01.469Z,57.50
2022-10-13T03:23:32.137Z,53.00
2022-10-13T03:24:02.826Z,34.70
2022-10-13T03:24:33.485Z,26.40
2022-10-13T03:25:04.227Z,24.40
2022-10-13T03:25:35.014Z,22.10
2022-10-13T03:26:08.529Z,23.20
2022-10-13T03:26:43.080Z,23.50
2022-10-13T03:27:06.698Z,30.30
2022-10-13T03:27:38.857Z,24.10
2022-10-13T03:28:08.287Z,23.80
2022-10-13T03:28:38.990Z,25.70
2022-10-13T03:29:09.668Z,22.80
2022-10-13T03:29:40.983Z,36.70
2022-10-13T03:30:13.187Z,33.40
2022-10-13T03:30:41.843Z,33.60
2022-10-13T03:31:12.490Z,38.70
2022-10-13T03:31:43.105Z,30.90
2022-10-13T03:32:13.828Z,29.70
2022-10-13T03:32:44.484Z,32.80
2022-10-13T03:33:15.144Z,30.80
2022-10-13T03:33:45.874Z,28.60
2022-10-13T03:34:16.546Z,29.50
2022-10-13T03:34:47.245Z,29.10
2022-10-13T03:35:17.943Z,28.10
2022-10-13T03:35:48.573Z,27.60
2022-10-13T03:36:19.257Z,29.60
2022-10-13T03:36:49.913Z,26.80
2022-10-13T03:37:20.536Z,30.40
2022-10-13T03:37:51.181Z,30.70
2022-10-13T03:38:21.810Z,30.20
2022-10-13T03:38:52.463Z,31.60
2022-10-13T03:39:26.288Z,32.00
2022-10-13T03:39:54.071Z,34.40
2022-10-13T03:40:24.710Z,29.00
2022-10-13T03:40:55.371Z,30.10
2022-10-13T03:41:26.096Z,43.00
2022-10-13T03:41:56.729Z,32.30
2022-10-13T03:42:27.379Z,34.10
2022-10-13T03:42:58.070Z,35.50
2022-10-13T03:43:28.710Z,36.60
2022-10-13T03:43:59.363Z,36.00
2022-10-13T03:44:31.129Z,35.80
2022-10-13T03:45:01.627Z,27.50
2022-10-13T03:45:31.751Z,27.10
2022-10-13T03:46:03.943Z,27.00
2022-10-13T03:46:34.136Z,37.10
2022-10-13T03:47:04.310Z,32.00
2022-10-13T03:47:34.956Z,29.30
2022-10-13T03:48:05.603Z,32.50
2022-10-13T03:48:36.259Z,34.50
2022-10-13T03:49:06.907Z,46.40
2022-10-13T03:49:37.571Z,37.60
2022-10-13T03:50:08.237Z,41.10
2022-10-13T03:50:39.642Z,46.00
2022-10-13T03:51:09.812Z,57.50
2022-10-13T03:51:41.159Z,52.90
2022-10-13T03:52:11.301Z,50.50
2022-10-13T03:52:42.622Z,42.90
2022-10-13T03:53:13.532Z,43.30
2022-10-13T03:53:43.683Z,42.10
2022-10-13T03:54:14.361Z,51.80
2022-10-13T03:54:45.041Z,53.50
2022-10-13T03:55:16.417Z,53.60
2022-10-13T03:55:46.564Z,44.40
2022-10-13T03:56:17.341Z,35.80
2022-10-13T03:56:48.124Z,44.80
2022-10-13T03:57:18.767Z,44.60
2022-10-13T03:57:49.408Z,38.80
2022-10-13T03:58:20.043Z,38.10
2022-10-13T03:58:50.692Z,27.00
2022-10-13T03:59:21.348Z,29.50
2022-10-13T03:59:52.108Z,26.50
2022-10-13T04:00:22.741Z,31.10
2022-10-13T04:00:53.385Z,25.00
2022-10-13T04:01:24.079Z,24.80
2022-10-13T04:01:54.753Z,25.00
2022-10-13T04:02:25.370Z,32.30
2022-10-13T04:02:56.023Z,27.00
2022-10-13T04:03:26.683Z,32.70
2022-10-13T04:03:57.319Z,32.60
2022-10-13T04:04:27.911Z,34.00
2022-10-13T04:05:02.631Z,41.50
2022-10-13T04:05:29.254Z,38.00
2022-10-13T04:05:59.890Z,52.50
2022-10-13T04:06:30.542Z,45.20
2022-10-13T04:07:01.181Z,45.60
2022-10-13T04:07:31.818Z,48.70
2022-10-13T04:08:02.460Z,45.30
2022-10-13T04:08:33.102Z,45.10
2022-10-13T04:09:03.733Z,44.40
2022-10-13T04:09:34.384Z,48.50
2022-10-13T04:10:08.988Z,43.70
2022-10-13T04:10:35.568Z,32.70
2022-10-13T04:11:06.208Z,31.90
2022-10-13T04:11:37.512Z,34.60
2022-10-13T04:12:07.685Z,32.80
2022-10-13T04:12:38.317Z,33.40
2022-10-13T04:13:09.490Z,54.00
2022-10-13T04:13:39.633Z,47.70
2022-10-13T04:14:10.286Z,44.40
2022-10-13T04:14:40.944Z,48.80
2022-10-13T04:15:11.611Z,51.00
2022-10-13T04:15:42.943Z,49.70
2022-10-13T04:16:13.076Z,48.20
2022-10-13T04:16:43.714Z,52.20
2022-10-13T04:17:14.373Z,47.70
2022-10-13T04:17:45.007Z,47.50
2022-10-13T04:18:15.718Z,48.40
2022-10-13T04:18:46.345Z,44.20
2022-10-13T04:19:16.989Z,49.00
2022-10-13T04:19:47.645Z,47.70
2022-10-13T04:20:18.295Z,45.70
2022-10-13T04:20:48.927Z,43.50
2022-10-13T04:21:19.584Z,48.50
2022-10-13T04:21:51.121Z,45.20
2022-10-13T04:22:21.079Z,59.90
2022-10-13T04:22:51.424Z,51.10
2022-10-13T04:23:22.073Z,51.30
2022-10-13T04:23:53.913Z,34.60
2022-10-13T04:24:23.529Z,40.50
2022-10-13T04:24:54.180Z,48.00
2022-10-13T04:25:24.837Z,50.40
2022-10-13T04:25:55.469Z,41.90
2022-10-13T04:26:26.102Z,36.70
2022-10-13T04:26:56.753Z,29.70
2022-10-13T04:27:27.391Z,29.10
2022-10-13T04:27:58.057Z,30.20
2022-10-13T04:28:28.727Z,29.20
2022-10-13T04:28:59.394Z,30.00
2022-10-13T04:29:30.006Z,31.40
2022-10-13T04:30:00.670Z,37.30
2022-10-13T04:30:31.308Z,42.80
2022-10-13T04:31:01.955Z,39.80
2022-10-13T04:31:32.592Z,42.60
2022-10-13T04:32:03.232Z,44.20
2022-10-13T04:32:35.738Z,46.70
2022-10-13T04:33:04.378Z,44.10
2022-10-13T04:33:35.016Z,38.70
2022-10-13T04:34:12.554Z,36.20
2022-10-13T04:34:36.178Z,35.00
2022-10-13T04:35:06.835Z,36.30
2022-10-13T04:35:37.467Z,37.10
2022-10-13T04:36:08.120Z,39.60
2022-10-13T04:36:38.769Z,33.70
2022-10-13T04:37:09.383Z,40.00
2022-10-13T04:37:44.848Z,32.60
2022-10-13T04:38:10.567Z,28.60
2022-10-13T04:38:41.201Z,35.50
2022-10-13T04:39:11.835Z,32.60
2022-10-13T04:39:43.407Z,34.10
2022-10-13T04:40:13.069Z,45.10
2022-10-13T04:40:43.730Z,49.20
2022-10-13T04:41:14.375Z,39.70
2022-10-13T04:41:45.007Z,40.40
2022-10-13T04:42:15.644Z,45.00
2022-10-13T04:42:46.281Z,51.40
2022-10-13T04:43:16.922Z,43.20
2022-10-13T04:43:47.570Z,39.80
2022-10-13T04:44:18.235Z,33.40
2022-10-13T04:44:48.882Z,32.40
2022-10-13T04:45:19.536Z,30.40
2022-10-13T04:45:50.198Z,29.20
2022-10-13T04:46:20.857Z,28.40
2022-10-13T04:46:52.425Z,30.70
2022-10-13T04:47:22.136Z,30.80
2022-10-13T04:47:53.800Z,27.70
2022-10-13T04:48:23.536Z,27.80
2022-10-13T04:48:54.941Z,29.30
2022-10-13T04:49:25.190Z,29.50
2022-10-13T04:49:55.937Z,29.00
2022-10-13T04:50:26.597Z,26.70
2022-10-13T04:50:57.274Z,31.90
2022-10-13T04:51:27.918Z,28.00
2022-10-13T04:51:58.559Z,26.00
2022-10-13T04:52:29.194Z,24.60
2022-10-13T04:53:00.501Z,28.10
2022-10-13T04:53:30.855Z,31.30
2022-10-13T04:54:01.468Z,35.10
2022-10-13T04:54:32.080Z,30.70
2022-10-13T04:55:02.706Z,34.60
2022-10-13T04:55:33.351Z,27.40
2022-10-13T04:56:03.994Z,26.10
2022-10-13T04:56:34.663Z,28.80
2022-10-13T04:57:05.301Z,33.40
2022-10-13T04:57:36.155Z,32.50
2022-10-13T04:58:06.829Z,27.20
2022-10-13T04:58:37.519Z,34.40
2022-10-13T04:59:08.171Z,31.30
2022-10-13T04:59:38.922Z,30.80
2022-10-13T05:00:09.624Z,30.20
2022-10-13T05:00:40.342Z,32.50
2022-10-13T05:01:12.265Z,33.20
2022-10-13T05:01:43.198Z,31.80
2022-10-13T05:02:12.790Z,30.10
2022-10-13T05:02:43.425Z,32.40
2022-10-13T05:03:14.063Z,41.70
2022-10-13T05:03:44.703Z,31.20
2022-10-13T05:04:15.431Z,30.70
2022-10-13T05:04:46.115Z,28.50
2022-10-13T05:05:16.794Z,28.00
2022-10-13T05:05:47.560Z,27.20
2022-10-13T05:06:18.194Z,26.50
2022-10-13T05:07:15.929Z,27.00
2022-10-13T05:07:21.859Z,28.80
2022-10-13T05:07:49.996Z,30.50
2022-10-13T05:08:20.629Z,32.40
2022-10-13T05:08:51.257Z,32.00
2022-10-13T05:09:22.679Z,29.80
2022-10-13T05:09:52.824Z,30.80
2022-10-13T05:10:23.488Z,31.10
2022-10-13T05:10:54.154Z,31.10
2022-10-13T05:11:24.807Z,37.00
2022-10-13T05:11:55.422Z,35.60
2022-10-13T05:12:26.043Z,37.40
2022-10-13T05:12:56.679Z,42.20
2022-10-13T05:13:27.310Z,41.50
2022-10-13T05:13:57.956Z,38.20
2022-10-13T05:14:28.606Z,37.80
2022-10-13T05:14:59.246Z,39.80
2022-10-13T05:15:29.891Z,41.60
2022-10-13T05:16:00.522Z,38.50
2022-10-13T05:16:31.151Z,37.80
2022-10-13T05:17:01.792Z,36.40
2022-10-13T05:17:35.268Z,35.90
2022-10-13T05:18:03.161Z,35.90
2022-10-13T05:18:33.792Z,39.90
2022-10-13T05:19:04.427Z,40.70
2022-10-13T05:19:35.064Z,39.10
2022-10-13T05:20:05.708Z,38.90
2022-10-13T05:20:36.349Z,35.50
2022-10-13T05:21:06.976Z,38.90
2022-10-13T05:21:37.588Z,36.10
2022-10-13T05:22:08.231Z,32.50
2022-10-13T05:22:38.849Z,28.80
2022-10-13T05:23:10.960Z,33.10
2022-10-13T05:23:40.096Z,30.10
2022-10-13T05:24:10.758Z,30.20
2022-10-13T05:24:41.408Z,33.60
2022-10-13T05:25:12.022Z,33.00
2022-10-13T05:25:42.664Z,26.50
2022-10-13T05:26:13.302Z,31.60
2022-10-13T05:26:43.936Z,32.60
2022-10-13T05:27:14.569Z,37.80
2022-10-13T05:27:45.206Z,27.40
2022-10-13T05:28:15.904Z,22.70
2022-10-13T05:28:46.720Z,26.90
2022-10-13T05:29:17.401Z,32.00
2022-10-13T05:29:48.052Z,35.30
2022-10-13T05:30:18.680Z,33.70
2022-10-13T05:30:49.319Z,31.20
2022-10-13T05:31:19.948Z,31.30
2022-10-13T05:31:50.604Z,32.20
2022-10-13T05:32:21.777Z,33.10
2022-10-13T05:32:53.985Z,32.30
2022-10-13T05:33:22.705Z,36.10
2022-10-13T05:33:53.341Z,35.90
2022-10-13T05:34:23.993Z,31.00
2022-10-13T05:34:54.621Z,32.00
2022-10-13T05:35:25.355Z,32.90
2022-10-13T05:35:55.990Z,26.20
2022-10-13T05:36:26.618Z,21.00
2022-10-13T05:36:57.238Z,22.80
2022-10-13T05:37:28.528Z,23.80
2022-10-13T05:37:58.674Z,22.50
2022-10-13T05:38:29.309Z,21.70
2022-10-13T05:38:59.948Z,23.30
2022-10-13T05:39:30.585Z,31.00
2022-10-13T05:40:01.242Z,35.30
2022-10-13T05:40:31.985Z,32.00
2022-10-13T05:41:02.625Z,36.60
2022-10-13T05:41:33.276Z,36.20
2022-10-13T05:42:03.910Z,38.00
2022-10-13T05:42:34.593Z,34.90
2022-10-13T05:43:05.231Z,34.60
2022-10-13T05:43:35.870Z,34.90
2022-10-13T05:44:06.504Z,28.50
2022-10-13T05:44:37.139Z,29.60
2022-10-13T05:45:07.752Z,31.90
2022-10-13T05:45:38.400Z,24.80
2022-10-13T05:46:09.024Z,22.90
2022-10-13T05:46:39.672Z,23.50
2022-10-13T05:47:10.313Z,30.40
2022-10-13T05:47:40.976Z,25.60
2022-10-13T05:48:11.615Z,28.20
2022-10-13T05:48:42.265Z,24.50
2022-10-13T05:49:12.920Z,23.50
2022-10-13T05:49:43.562Z,24.90
2022-10-13T05:50:14.205Z,29.20
2022-10-13T05:50:44.862Z,27.90
2022-10-13T05:51:15.511Z,27.70
2022-10-13T05:51:46.131Z,25.00
2022-10-13T05:52:17.023Z,24.60
2022-10-13T05:52:47.724Z,27.00
2022-10-13T05:53:18.359Z,31.40
2022-10-13T05:53:51.951Z,36.00
2022-10-13T05:54:19.571Z,29.70
2022-10-13T05:54:50.205Z,35.50
2022-10-13T05:55:20.949Z,35.60
2022-10-13T05:55:51.624Z,35.20
2022-10-13T05:56:22.258Z,22.90
2022-10-13T05:56:52.896Z,22.50
2022-10-13T05:57:23.520Z,21.70
2022-10-13T05:57:54.156Z,22.70
2022-10-13T05:58:24.798Z,21.60
2022-10-13T05:58:55.453Z,25.90
2022-10-13T05:59:27.254Z,33.70
2022-10-13T05:59:57.044Z,23.30
2022-10-13T06:00:27.693Z,24.60
2022-10-13T06:00:58.345Z,28.60
2022-10-13T06:01:29.022Z,23.00
2022-10-13T06:02:00.622Z,29.40
2022-10-13T06:02:30.259Z,31.40
2022-10-13T06:03:00.892Z,31.40
2022-10-13T06:03:31.545Z,31.80
2022-10-13T06:04:02.175Z,32.90
2022-10-13T06:04:32.811Z,31.60
2022-10-13T06:05:03.467Z,32.80
2022-10-13T06:05:35.048Z,32.20
2022-10-13T06:06:05.537Z,29.50
2022-10-13T06:06:35.187Z,29.70
2022-10-13T06:07:05.828Z,25.30
2022-10-13T06:07:36.482Z,29.50
2022-10-13T06:08:07.126Z,29.70
2022-10-13T06:08:37.764Z,29.30
2022-10-13T06:09:08.421Z,31.10
2022-10-13T06:09:39.072Z,30.80
2022-10-13T06:10:09.766Z,29.70
2022-10-13T06:10:40.433Z,25.80
2022-10-13T06:11:11.076Z,29.60
2022-10-13T06:11:41.709Z,29.30
2022-10-13T06:12:12.372Z,31.60
2022-10-13T06:12:43.014Z,32.80
2022-10-13T06:13:13.731Z,32.00
2022-10-13T06:13:44.364Z,27.00
2022-10-13T06:14:15.003Z,22.50
2022-10-13T06:14:53.213Z,23.50
2022-10-13T06:15:16.348Z,26.50
2022-10-13T06:15:46.988Z,24.80
2022-10-13T06:16:17.648Z,22.60
2022-10-13T06:16:48.325Z,22.70
2022-10-13T06:17:19.010Z,21.40
2022-10-13T06:17:51.925Z,23.40
2022-10-13T06:18:20.567Z,23.00
2022-10-13T06:18:51.282Z,20.60
2022-10-13T06:19:21.920Z,19.40
2022-10-13T06:19:52.572Z,20.10
2022-10-13T06:20:23.193Z,21.10
2022-10-13T06:20:53.854Z,20.00
2022-10-13T06:21:24.483Z,21.50
2022-10-13T06:21:55.124Z,24.00
2022-10-13T06:22:25.880Z,21.10
2022-10-13T06:22:56.516Z,20.40
2022-10-13T06:23:27.188Z,19.30
2022-10-13T06:23:57.826Z,21.00
2022-10-13T06:24:28.523Z,21.00
2022-10-13T06:24:59.281Z,20.10
2022-10-13T06:25:29.924Z,23.10
2022-10-13T06:26:00.569Z,22.60
2022-10-13T06:26:31.257Z,20.90
2022-10-13T06:27:01.887Z,24.70
2022-10-13T06:27:32.497Z,26.30
2022-10-13T06:28:03.136Z,24.10
2022-10-13T06:28:33.808Z,26.30
2022-10-13T06:29:04.493Z,27.40
2022-10-13T06:29:35.108Z,31.80
2022-10-13T06:30:05.741Z,32.90
2022-10-13T06:30:36.367Z,20.40
2022-10-13T06:31:07.033Z,19.10
2022-10-13T06:31:37.727Z,25.90
2022-10-13T06:32:08.362Z,21.50
2022-10-13T06:32:39.548Z,18.50
2022-10-13T06:33:09.699Z,21.70
2022-10-13T06:33:40.338Z,23.80
2022-10-13T06:34:11.224Z,30.00
2022-10-13T06:34:41.861Z,33.00
2022-10-13T06:35:12.501Z,27.20
2022-10-13T06:35:43.145Z,27.70
2022-10-13T06:36:13.817Z,28.00
2022-10-13T06:36:44.558Z,29.90
2022-10-13T06:37:15.202Z,25.90
2022-10-13T06:37:45.800Z,22.80
2022-10-13T06:38:16.438Z,23.20
2022-10-13T06:38:47.071Z,30.70
2022-10-13T06:39:17.711Z,30.00
2022-10-13T06:39:48.365Z,30.80
2022-10-13T06:40:19.005Z,30.20
2022-10-13T06:40:49.646Z,28.70